createdAt,value
2022-08-23T00:01:23.973Z,101080.44
2022-08-23T00:03:52.441Z,101080.13
2022-08-23T00:06:19.222Z,101078.59
2022-08-23T00:08:48.686Z,101070.94
2022-08-23T00:11:28.409Z,101075.06
2022-08-23T00:13:55.752Z,101075.06
2022-08-23T00:16:22.600Z,101068.63
2022-08-23T00:18:49.587Z,101070.81
2022-08-23T00:21:17.090Z,101071.31
2022-08-23T00:23:43.788Z,101062.19
2022-08-23T00:26:10.778Z,101065.94
2022-08-23T00:28:37.541Z,101065.09
2022-08-23T00:31:05.107Z,101055.03
2022-08-23T00:33:31.686Z,101050.13
2022-08-23T00:35:58.240Z,101054.13
2022-08-23T00:38:32.493Z,101052.56
2022-08-23T00:41:01.843Z,101049.34
2022-08-23T00:44:00.760Z,101054.31
2022-08-23T00:47:01.386Z,101054.22
2022-08-23T00:49:29.854Z,101060.72
2022-08-23T00:52:08.354Z,101064.56
2022-08-23T00:54:38.043Z,101062.44
2022-08-23T00:57:19.330Z,101061.84
2022-08-23T00:59:46.737Z,101066.03
2022-08-23T01:02:14.816Z,101069.38
2022-08-23T01:04:50.457Z,101074.53
2022-08-23T01:07:34.056Z,101068.56
2022-08-23T01:10:09.345Z,101073.69
2022-08-23T01:12:50.476Z,101071.91
2022-08-23T01:15:23.922Z,101085.00
2022-08-23T01:17:58.649Z,101083.69
2022-08-23T01:20:26.987Z,101084.44
2022-08-23T01:23:10.464Z,101082.13
2022-08-23T01:25:38.126Z,101089.13
2022-08-23T01:28:05.143Z,101092.50
2022-08-23T01:30:35.386Z,101081.09
2022-08-23T01:33:06.127Z,101090.81
2022-08-23T01:35:44.804Z,101085.75
2022-08-23T01:38:12.603Z,101085.75
2022-08-23T01:40:40.045Z,101087.66
2022-08-23T01:43:07.573Z,101088.78
2022-08-23T01:45:35.327Z,101092.34
2022-08-23T01:48:02.833Z,101096.78
2022-08-23T01:50:30.337Z,101095.09
2022-08-23T01:52:57.840Z,101091.75
2022-08-23T01:55:25.810Z,101091.06
2022-08-23T01:57:55.877Z,101093.91
2022-08-23T02:00:27.475Z,101084.94
2022-08-23T02:02:54.030Z,101091.66
2022-08-23T02:05:20.706Z,101091.03
2022-08-23T02:07:48.381Z,101094.19
2022-08-23T02:10:16.109Z,101089.84
2022-08-23T02:12:46.827Z,101095.97
2022-08-23T02:15:14.902Z,101099.69
2022-08-23T02:17:41.805Z,101096.34
2022-08-23T02:20:09.193Z,101096.56
2022-08-23T02:22:39.034Z,101100.41
2022-08-23T02:25:06.648Z,101103.16
2022-08-23T02:27:33.230Z,101100.88
2022-08-23T02:29:59.790Z,101092.00
2022-08-23T02:32:28.759Z,101101.97
2022-08-23T02:35:05.725Z,101095.94
2022-08-23T02:37:33.187Z,101103.00
2022-08-23T02:40:00.227Z,101095.34
2022-08-23T02:42:26.979Z,101105.28
2022-08-23T02:44:53.548Z,101100.84
2022-08-23T02:47:20.112Z,101101.03
2022-08-23T02:49:46.932Z,101102.19
2022-08-23T02:52:13.685Z,101109.84
2022-08-23T02:54:40.395Z,101104.81
2022-08-23T02:57:07.191Z,101108.16
2022-08-23T02:59:33.861Z,101108.16
2022-08-23T03:02:00.572Z,101111.00
2022-08-23T03:04:27.535Z,101108.38
2022-08-23T03:06:54.208Z,101107.44
2022-08-23T03:09:20.905Z,101104.81
2022-08-23T03:11:50.028Z,101109.13
2022-08-23T03:14:16.991Z,101107.31
2022-08-23T03:16:44.950Z,101107.53
2022-08-23T03:19:11.537Z,101111.97
2022-08-23T03:21:38.690Z,101111.59
2022-08-23T03:24:10.189Z,101114.34
2022-08-23T03:26:37.613Z,101109.06
2022-08-23T03:29:04.726Z,101115.31
2022-08-23T03:31:31.327Z,101112.66
2022-08-23T03:33:58.192Z,101118.19
2022-08-23T03:36:28.023Z,101113.94
2022-08-23T03:38:55.567Z,101122.94
2022-08-23T03:41:22.393Z,101126.41
2022-08-23T03:43:49.043Z,101117.66
2022-08-23T03:46:23.067Z,101125.56
2022-08-23T03:48:55.391Z,101130.59
2022-08-23T03:51:24.498Z,101130.72
2022-08-23T03:53:51.178Z,101129.16
2022-08-23T03:56:21.870Z,101131.16
2022-08-23T03:58:50.194Z,101132.13
2022-08-23T04:01:17.276Z,101131.28
2022-08-23T04:03:43.970Z,101143.72
2022-08-23T04:06:12.003Z,101140.13
2022-08-23T04:08:38.749Z,101144.56
2022-08-23T04:11:05.780Z,101155.94
2022-08-23T04:13:32.371Z,101153.63
2022-08-23T04:15:59.027Z,101159.75
2022-08-23T04:18:25.682Z,101157.47
2022-08-23T04:20:53.045Z,101164.53
2022-08-23T04:23:19.588Z,101167.16
2022-08-23T04:25:46.322Z,101161.13
2022-08-23T04:28:12.965Z,101166.41
2022-08-23T04:30:39.527Z,101168.09
2022-08-23T04:33:09.927Z,101173.88
2022-08-23T04:35:37.907Z,101173.66
2022-08-23T04:38:04.499Z,101175.22
2022-08-23T04:41:11.406Z,101173.19
2022-08-23T04:43:38.514Z,101178.47
2022-08-23T04:46:05.708Z,101181.00
2022-08-23T04:48:32.545Z,101183.72
2022-08-23T04:50:59.266Z,101184.69
2022-08-23T04:53:25.989Z,101184.69
2022-08-23T04:55:52.548Z,101189.50
2022-08-23T04:58:19.408Z,101193.63
2022-08-23T05:00:51.522Z,101194.34
2022-08-23T05:03:18.441Z,101196.97
2022-08-23T05:05:45.042Z,101199.28
2022-08-23T05:08:11.704Z,101196.53
2022-08-23T05:10:38.635Z,101196.28
2022-08-23T05:13:05.207Z,101201.22
2022-08-23T05:15:31.798Z,101198.59
2022-08-23T05:17:58.409Z,101207.97
2022-08-23T05:20:25.163Z,101208.44
2022-08-23T05:22:51.999Z,101211.84
2022-08-23T05:25:18.591Z,101206.09
2022-08-23T05:27:45.231Z,101220.44
2022-08-23T05:30:15.133Z,101214.72
2022-08-23T05:32:42.420Z,101221.22
2022-08-23T05:35:09.392Z,101215.56
2022-08-23T05:37:36.007Z,101220.13
2022-08-23T05:40:02.867Z,101221.34
2022-08-23T05:42:29.468Z,101226.09
2022-08-23T05:44:56.604Z,101228.13
2022-08-23T05:47:24.863Z,101219.63
2022-08-23T05:49:51.846Z,101223.34
2022-08-23T05:52:18.439Z,101231.50
2022-08-23T05:54:45.128Z,101222.28
2022-08-23T05:57:11.874Z,101228.69
2022-08-23T05:59:38.556Z,101228.56
2022-08-23T06:02:06.102Z,101233.38
2022-08-23T06:04:33.268Z,101236.25
2022-08-23T06:06:59.910Z,101246.81
2022-08-23T06:09:26.707Z,101247.50
2022-08-23T06:11:54.400Z,101243.44
2022-08-23T06:14:21.560Z,101244.63
2022-08-23T06:16:53.619Z,101242.69
2022-08-23T06:19:23.290Z,101248.19
2022-08-23T06:21:51.360Z,101247.56
2022-08-23T06:24:18.131Z,101253.34
2022-08-23T06:26:45.814Z,101249.16
2022-08-23T06:29:16.026Z,101254.91
2022-08-23T06:31:49.164Z,101252.25
2022-08-23T06:34:27.819Z,101253.41
2022-08-23T06:37:02.366Z,101260.16
2022-08-23T06:39:33.437Z,101257.84
2022-08-23T06:42:13.309Z,101258.06
2022-08-23T06:44:48.998Z,101260.19
2022-08-23T06:47:15.730Z,101268.19
2022-08-23T06:49:51.106Z,101263.88
2022-08-23T06:52:24.761Z,101263.25
2022-08-23T06:54:52.582Z,101265.09
2022-08-23T06:57:20.638Z,101265.28
2022-08-23T06:59:50.050Z,101266.50
2022-08-23T07:02:16.885Z,101269.09
2022-08-23T07:04:43.634Z,101266.38
2022-08-23T07:07:12.167Z,101264.75
2022-08-23T07:09:40.572Z,101265.31
2022-08-23T07:12:07.713Z,101267.75
2022-08-23T07:14:34.535Z,101277.94
2022-08-23T07:17:03.628Z,101274.88
2022-08-23T07:19:33.236Z,101269.50
2022-08-23T07:22:01.788Z,101274.16
2022-08-23T07:24:33.315Z,101269.94
2022-08-23T07:27:04.025Z,101273.81
2022-08-23T07:29:30.548Z,101267.13
2022-08-23T07:31:58.118Z,101274.53
2022-08-23T07:34:26.325Z,101271.66
2022-08-23T07:36:54.341Z,101277.81
2022-08-23T07:39:22.844Z,101279.38
2022-08-23T07:41:49.922Z,101277.63
2022-08-23T07:44:18.268Z,101283.78
2022-08-23T07:46:47.032Z,101290.19
2022-08-23T07:49:15.525Z,101288.69
2022-08-23T07:51:45.585Z,101290.78
2022-08-23T07:54:13.514Z,101292.16
2022-08-23T07:56:40.621Z,101286.91
2022-08-23T07:59:08.476Z,101290.00
2022-08-23T08:01:36.291Z,101287.34
2022-08-23T08:04:04.863Z,101293.06
2022-08-23T08:06:40.468Z,101300.75
2022-08-23T08:09:07.983Z,101290.81
2022-08-23T08:11:35.803Z,101289.16
2022-08-23T08:14:07.974Z,101296.41
2022-08-23T08:17:00.771Z,101301.59
2022-08-23T08:19:27.388Z,101293.34
2022-08-23T08:21:53.966Z,101305.63
2022-08-23T08:24:20.530Z,101299.91
2022-08-23T08:26:47.409Z,101297.94
2022-08-23T08:29:14.306Z,101295.56
2022-08-23T08:31:43.309Z,101290.22
2022-08-23T08:34:12.036Z,101286.16
2022-08-23T08:36:52.112Z,101294.28
2022-08-23T08:39:22.425Z,101289.69
2022-08-23T08:42:04.775Z,101295.94
2022-08-23T08:44:37.452Z,101297.47
2022-08-23T08:47:29.231Z,101302.50
2022-08-23T08:50:26.680Z,101301.06
2022-08-23T08:53:10.230Z,101296.16
2022-08-23T08:55:41.569Z,101298.25
2022-08-23T08:58:17.306Z,101299.88
2022-08-23T09:00:44.145Z,101302.25
2022-08-23T09:03:14.479Z,101309.22
2022-08-23T09:05:52.854Z,101306.81
2022-08-23T09:08:44.207Z,101299.94
2022-08-23T09:11:45.622Z,101295.03
2022-08-23T09:14:15.175Z,101293.31
2022-08-23T09:17:05.602Z,101303.06
2022-08-23T09:19:37.094Z,101297.13
2022-08-23T09:22:15.380Z,101302.41
2022-08-23T09:24:42.671Z,101300.69
2022-08-23T09:27:10.658Z,101306.59
2022-08-23T09:29:40.556Z,101305.16
2022-08-23T09:32:26.993Z,101303.09
2022-08-23T09:35:25.109Z,101309.47
2022-08-23T09:38:17.429Z,101302.50
2022-08-23T09:40:46.484Z,101306.31
2022-08-23T09:43:43.731Z,101306.47
2022-08-23T09:46:10.492Z,101303.94
2022-08-23T09:48:45.576Z,101303.94
2022-08-23T09:51:29.589Z,101306.69
2022-08-23T09:54:34.911Z,101305.22
2022-08-23T09:57:05.064Z,101292.09
2022-08-23T09:59:35.102Z,101304.38
2022-08-23T10:02:02.569Z,101299.03
2022-08-23T10:04:38.886Z,101293.84
2022-08-23T10:07:26.212Z,101297.50
2022-08-23T10:09:53.168Z,101297.41
2022-08-23T10:12:19.966Z,101295.56
2022-08-23T10:14:48.114Z,101294.13
2022-08-23T10:17:14.783Z,101287.34
2022-08-23T10:19:52.464Z,101288.56
2022-08-23T10:22:24.558Z,101291.28
2022-08-23T10:25:02.686Z,101294.78
2022-08-23T10:28:03.322Z,101286.09
2022-08-23T10:30:51.797Z,101284.63
2022-08-23T10:33:38.654Z,101280.38
2022-08-23T10:36:05.494Z,101284.91
2022-08-23T10:38:35.687Z,101279.56
2022-08-23T10:41:23.718Z,101285.03
2022-08-23T10:44:14.912Z,101276.78
2022-08-23T10:47:20.068Z,101281.00
2022-08-23T10:49:50.796Z,101282.19
2022-08-23T10:52:23.622Z,101276.06
2022-08-23T10:55:05.875Z,101275.44
2022-08-23T10:57:37.924Z,101268.00
2022-08-23T11:00:09.160Z,101271.88
2022-08-23T11:03:04.806Z,101271.38
2022-08-23T11:05:35.873Z,101270.72
2022-08-23T11:08:11.973Z,101261.06
2022-08-23T11:10:39.224Z,101263.38
2022-08-23T11:13:21.730Z,101263.88
2022-08-23T11:16:23.509Z,101253.09
2022-08-23T11:18:51.271Z,101253.75
2022-08-23T11:21:18.010Z,101255.09
2022-08-23T11:23:58.424Z,101246.09
2022-08-23T11:26:34.191Z,101255.47
2022-08-23T11:29:06.845Z,101252.16
2022-08-23T11:31:38.710Z,101251.31
2022-08-23T11:34:31.524Z,101246.66
2022-08-23T11:37:20.052Z,101253.47
2022-08-23T11:40:07.554Z,101255.72
2022-08-23T11:42:44.822Z,101252.41
2022-08-23T11:47:42.422Z,101253.53
2022-08-23T11:50:38.798Z,101253.25
2022-08-23T11:53:44.032Z,101252.25
2022-08-23T11:56:52.598Z,101247.56
2022-08-23T11:59:41.622Z,101259.28
2022-08-23T12:02:39.772Z,101249.75
2022-08-23T12:05:35.349Z,101241.09
2022-08-23T12:08:02.712Z,101247.13
2022-08-23T12:10:41.775Z,101244.28
2022-08-23T12:13:20.628Z,101243.97
2022-08-23T12:16:14.778Z,101243.66
2022-08-23T12:18:53.466Z,101245.97
2022-08-23T12:21:50.795Z,101243.31
2022-08-23T12:24:20.290Z,101240.97
2022-08-23T12:27:09.337Z,101245.13
2022-08-23T12:30:03.118Z,101236.28
2022-08-23T12:32:49.951Z,101242.28
2022-08-23T12:35:25.863Z,101240.28
2022-08-23T12:38:04.317Z,101243.44
2022-08-23T12:40:43.928Z,101237.63
2022-08-23T12:43:22.505Z,101239.59
2022-08-23T12:46:00.968Z,101234.44
2022-08-23T12:48:30.935Z,101227.72
2022-08-23T12:51:10.840Z,101232.56
2022-08-23T12:53:45.611Z,101236.06
2022-08-23T12:56:20.027Z,101233.88
2022-08-23T12:58:53.636Z,101233.50
2022-08-23T13:01:32.267Z,101233.34
2022-08-23T13:04:04.926Z,101234.50
2022-08-23T13:06:37.908Z,101222.91
2022-08-23T13:09:13.089Z,101228.00
2022-08-23T13:11:40.376Z,101234.00
2022-08-23T13:14:31.124Z,101236.84
2022-08-23T13:17:31.502Z,101235.31
2022-08-23T13:20:07.156Z,101236.31
2022-08-23T13:22:36.045Z,101236.09
2022-08-23T13:25:32.309Z,101241.22
2022-08-23T13:28:03.440Z,101233.19
2022-08-23T13:30:33.186Z,101239.41
2022-08-23T13:33:08.677Z,101247.84
2022-08-23T13:35:50.232Z,101253.16
2022-08-23T13:38:22.822Z,101242.38
2022-08-23T13:41:10.535Z,101247.78
2022-08-23T13:43:48.838Z,101241.75
2022-08-23T13:46:28.862Z,101235.66
2022-08-23T13:49:11.591Z,101235.63
2022-08-23T13:51:41.399Z,101236.88
2022-08-23T13:54:13.781Z,101229.19
2022-08-23T13:56:53.374Z,101235.91
2022-08-23T13:59:31.810Z,101226.72
2022-08-23T14:02:06.481Z,101217.41
2022-08-23T14:04:34.175Z,101226.19
2022-08-23T14:07:00.736Z,101230.09
2022-08-23T14:09:27.407Z,101236.59
2022-08-23T14:11:59.294Z,101233.09
2022-08-23T14:14:28.145Z,101226.50
2022-08-23T14:16:59.632Z,101235.94
2022-08-23T14:22:17.885Z,101236.13
2022-08-23T14:24:45.649Z,101233.75
2022-08-23T14:27:12.798Z,101239.63
2022-08-23T14:29:39.376Z,101232.88
2022-08-23T14:32:06.185Z,101240.19
2022-08-23T14:34:32.741Z,101226.31
2022-08-23T14:39:46.514Z,101226.91
2022-08-23T14:42:19.137Z,101231.88
2022-08-23T14:44:45.934Z,101235.47
2022-08-23T14:47:12.561Z,101227.91
2022-08-23T14:49:39.538Z,101231.28
2022-08-23T14:52:06.441Z,101233.25
2022-08-23T14:54:33.523Z,101226.25
2022-08-23T14:57:00.524Z,101235.91
2022-08-23T14:59:27.250Z,101239.34
2022-08-23T15:01:55.056Z,101231.47
2022-08-23T15:04:23.608Z,101229.97
2022-08-23T15:07:16.162Z,101233.56
2022-08-23T15:09:38.363Z,101230.13
2022-08-23T15:14:52.434Z,101225.13
2022-08-23T15:17:19.100Z,101224.13
2022-08-23T15:19:45.650Z,101225.78
2022-08-23T15:22:18.459Z,101221.94
2022-08-23T15:24:47.856Z,101219.88
2022-08-23T15:27:14.461Z,101225.16
2022-08-23T15:29:41.088Z,101225.63
2022-08-23T15:32:07.839Z,101229.66
2022-08-23T15:34:37.163Z,101223.88
2022-08-23T15:37:06.849Z,101228.97
2022-08-23T15:39:33.459Z,101226.31
2022-08-23T15:42:00.019Z,101226.31
2022-08-23T15:44:26.602Z,101223.03
2022-08-23T15:46:54.844Z,101211.50
2022-08-23T15:49:23.804Z,101209.53
2022-08-23T15:51:50.347Z,101209.34
2022-08-23T15:54:16.914Z,101212.53
2022-08-23T15:56:46.993Z,101217.88
2022-08-23T15:59:15.668Z,101213.53
2022-08-23T16:01:42.715Z,101209.38
2022-08-23T16:04:10.300Z,101212.06
2022-08-23T16:06:37.994Z,101217.56
2022-08-23T16:09:06.531Z,101215.91
2022-08-23T16:11:33.485Z,101211.56
2022-08-23T16:14:00.262Z,101211.56
2022-08-23T16:16:31.013Z,101210.91
2022-08-23T16:18:59.770Z,101206.22
2022-08-23T16:21:29.202Z,101202.06
2022-08-23T16:23:57.062Z,101217.56
2022-08-23T16:26:34.751Z,101214.78
2022-08-23T16:29:04.405Z,101215.25
2022-08-23T16:31:38.440Z,101212.91
2022-08-23T16:34:09.655Z,101207.91
2022-08-23T16:36:36.912Z,101214.59
2022-08-23T16:39:04.950Z,101214.94
2022-08-23T16:41:31.585Z,101204.25
2022-08-23T16:43:58.410Z,101206.59
2022-08-23T16:46:28.840Z,101206.91
2022-08-23T16:48:55.671Z,101213.75
2022-08-23T16:51:23.188Z,101217.91
2022-08-23T16:54:01.425Z,101218.25
2022-08-23T16:56:33.540Z,101217.41
2022-08-23T16:59:00.330Z,101217.41
2022-08-23T17:01:27.551Z,101218.22
2022-08-23T17:03:54.164Z,101220.22
2022-08-23T17:06:21.069Z,101215.22
2022-08-23T17:08:48.377Z,101216.53
2022-08-23T17:11:18.869Z,101212.56
2022-08-23T17:13:46.098Z,101212.09
2022-08-23T17:16:12.968Z,101209.25
2022-08-23T17:18:40.089Z,101215.22
2022-08-23T17:21:07.721Z,101210.38
2022-08-23T17:23:40.385Z,101220.41
2022-08-23T17:26:09.569Z,101219.22
2022-08-23T17:28:36.436Z,101220.84
2022-08-23T17:31:03.880Z,101225.84
2022-08-23T17:33:30.681Z,101223.03
2022-08-23T17:35:57.344Z,101224.00
2022-08-23T17:38:24.114Z,101225.16
2022-08-23T17:40:50.898Z,101221.13
2022-08-23T17:43:17.457Z,101233.78
2022-08-23T17:45:51.260Z,101227.28
2022-08-23T17:48:20.546Z,101232.41
2022-08-23T17:50:48.178Z,101236.72
2022-08-23T17:53:17.693Z,101250.72
2022-08-23T17:55:44.415Z,101246.53
2022-08-23T17:58:11.828Z,101249.53
2022-08-23T18:00:39.837Z,101254.16
2022-08-23T18:03:07.290Z,101256.66
2022-08-23T18:05:37.332Z,101255.28
2022-08-23T18:08:04.469Z,101252.25
2022-08-23T18:10:31.120Z,101254.41
2022-08-23T18:12:58.732Z,101262.25
2022-08-23T18:15:26.828Z,101259.25
2022-08-23T18:17:58.137Z,101255.84
2022-08-23T18:20:28.414Z,101257.31
2022-08-23T18:22:56.945Z,101262.13
2022-08-23T18:25:24.362Z,101266.25
2022-08-23T18:28:06.337Z,101266.72
2022-08-23T18:30:37.508Z,101272.66
2022-08-23T18:33:06.503Z,101279.31
2022-08-23T18:35:34.681Z,101282.88
2022-08-23T18:38:01.388Z,101282.03
2022-08-23T18:40:28.833Z,101290.50
2022-08-23T18:42:55.983Z,101291.13
2022-08-23T18:45:22.962Z,101294.56
2022-08-23T18:47:49.649Z,101289.00
2022-08-23T18:50:18.740Z,101303.72
2022-08-23T18:52:45.446Z,101299.69
2022-08-23T18:55:12.117Z,101294.13
2022-08-23T18:57:39.120Z,101296.41
2022-08-23T19:00:06.826Z,101308.50
2022-08-23T19:02:34.098Z,101308.25
2022-08-23T19:05:03.026Z,101312.91
2022-08-23T19:07:29.831Z,101308.84
2022-08-23T19:09:56.454Z,101314.50
2022-08-23T19:12:23.203Z,101319.25
2022-08-23T19:14:49.816Z,101321.38
2022-08-23T19:17:16.731Z,101321.66
2022-08-23T19:19:43.357Z,101329.13
2022-08-23T19:22:09.990Z,101324.91
2022-08-23T19:24:36.625Z,101328.88
2022-08-23T19:27:03.389Z,101325.66
2022-08-23T19:29:30.108Z,101336.44
2022-08-23T19:31:56.735Z,101331.41
2022-08-23T19:34:23.870Z,101336.16
2022-08-23T19:36:59.103Z,101335.63
2022-08-23T19:39:28.248Z,101336.75
2022-08-23T19:41:55.374Z,101340.69
2022-08-23T19:44:22.772Z,101345.44
2022-08-23T19:46:49.542Z,101335.97
2022-08-23T19:49:16.629Z,101337.09
2022-08-23T19:51:44.085Z,101339.03
2022-08-23T19:54:12.916Z,101344.66
2022-08-23T19:56:41.858Z,101337.78
2022-08-23T19:59:12.698Z,101342.59
2022-08-23T20:01:39.849Z,101340.06
2022-08-23T20:04:06.740Z,101349.88
2022-08-23T20:06:33.731Z,101350.28
2022-08-23T20:09:00.533Z,101348.06
2022-08-23T20:11:28.454Z,101359.97
2022-08-23T20:13:56.713Z,101365.69
2022-08-23T20:16:23.958Z,101358.88
2022-08-23T20:18:51.591Z,101359.97
2022-08-23T20:21:18.355Z,101368.38
2022-08-23T20:24:03.815Z,101366.00
2022-08-23T20:26:30.444Z,101366.28
2022-08-23T20:28:59.831Z,101364.84
2022-08-23T20:31:30.472Z,101364.31
2022-08-23T20:33:57.263Z,101362.91
2022-08-23T20:36:24.826Z,101370.31
2022-08-23T20:38:51.547Z,101364.75
2022-08-23T20:41:18.162Z,101367.94
2022-08-23T20:43:49.007Z,101377.31
2022-08-23T20:46:16.273Z,101371.44
2022-08-23T20:48:43.067Z,101377.84
2022-08-23T20:51:09.966Z,101373.81
2022-08-23T20:53:38.143Z,101376.03
2022-08-23T20:56:04.863Z,101371.28
2022-08-23T20:58:32.993Z,101366.25
2022-08-23T21:01:00.585Z,101370.28
2022-08-23T21:03:27.264Z,101370.97
2022-08-23T21:06:15.117Z,101372.63
2022-08-23T21:08:43.453Z,101371.75
2022-08-23T21:11:10.959Z,101373.16
2022-08-23T21:13:44.005Z,101381.59
2022-08-23T21:16:11.955Z,101369.03
2022-08-23T21:18:39.016Z,101385.22
2022-08-23T21:21:05.771Z,101380.16
2022-08-23T21:23:33.034Z,101378.75
2022-08-23T21:25:59.708Z,101383.63
2022-08-23T21:28:27.315Z,101388.22
2022-08-23T21:30:54.588Z,101387.66
2022-08-23T21:33:22.071Z,101391.53
2022-08-23T21:35:49.410Z,101383.72
2022-08-23T21:38:15.961Z,101390.97
2022-08-23T21:40:43.483Z,101392.94
2022-08-23T21:43:10.462Z,101400.31
2022-08-23T21:45:37.619Z,101390.13
2022-08-23T21:48:08.423Z,101384.38
2022-08-23T21:50:34.960Z,101388.84
2022-08-23T21:53:01.649Z,101384.75
2022-08-23T21:55:36.075Z,101388.66
2022-08-23T21:58:03.808Z,101394.22
2022-08-23T22:00:30.691Z,101385.81
2022-08-23T22:02:57.642Z,101393.06
2022-08-23T22:05:24.708Z,101378.97
2022-08-23T22:07:51.952Z,101390.81
2022-08-23T22:10:19.279Z,101382.16
2022-08-23T22:12:45.924Z,101384.34
2022-08-23T22:15:13.076Z,101393.66
2022-08-23T22:17:40.557Z,101396.22
2022-08-23T22:20:09.499Z,101398.69
2022-08-23T22:22:36.929Z,101392.00
2022-08-23T22:25:04.282Z,101397.81
2022-08-23T22:27:32.425Z,101404.19
2022-08-23T22:29:59.500Z,101398.56
2022-08-23T22:32:26.747Z,101405.94
2022-08-23T22:34:53.423Z,101399.53
2022-08-23T22:37:19.970Z,101399.66
2022-08-23T22:39:46.658Z,101405.78
2022-08-23T22:42:13.862Z,101397.84
2022-08-23T22:44:40.713Z,101398.81
2022-08-23T22:47:07.701Z,101403.31
2022-08-23T22:49:34.619Z,101407.06
2022-08-23T22:52:01.563Z,101407.06
2022-08-23T22:54:28.117Z,101406.94
2022-08-23T22:56:54.725Z,101406.09
2022-08-23T22:59:25.846Z,101414.06
2022-08-23T23:01:56.088Z,101409.72
2022-08-23T23:04:25.859Z,101407.84
2022-08-23T23:06:53.671Z,101404.50
2022-08-23T23:09:20.556Z,101410.84
2022-08-23T23:11:48.079Z,101411.97
2022-08-23T23:14:17.053Z,101415.56
2022-08-23T23:16:44.659Z,101417.38
2022-08-23T23:19:50.408Z,101407.88
2022-08-23T23:22:17.266Z,101406.59
2022-08-23T23:24:43.850Z,101411.97
2022-08-23T23:27:10.456Z,101409.81
2022-08-23T23:29:38.451Z,101403.09
2022-08-23T23:32:06.069Z,101407.22
2022-08-23T23:34:32.692Z,101401.31
2022-08-23T23:36:59.475Z,101404.09
2022-08-23T23:39:27.703Z,101408.41
2022-08-23T23:41:55.621Z,101409.84
2022-08-23T23:44:30.751Z,101413.56
2022-08-23T23:46:59.601Z,101406.97
2022-08-23T23:49:33.156Z,101408.06
2022-08-23T23:52:02.393Z,101406.75
2022-08-23T23:54:29.021Z,101408.69
2022-08-23T23:56:55.702Z,101403.13
2022-08-23T23:59:22.278Z,101411.69
